Latest Weather Observations for Bushy Park

IDT60901

Issued at 5:55 pm EDT Friday 28 November 2014 (issued every 10 minutes, with the page automatically refreshed every 10 minutes)

About weather observations | Map of Hobart area stations | Latest observations for Hobart area | Other Formats
Station Details ID: 095003 Name: BUSHY PARK (BUSHY PARK ESTATES) Lat: -42.71 Lon: 146.90 Height: 27.0 m
Data from the previous 72 hours. | See also: Recent months at Bushy Park
Date/Time
EDT
Tmp

°C
App
Tmp
°C
Dew
Point
°C
Rel
Hum
%
Delta-T

°C
Wind Press
QNH
hPa
Press
MSL
hPa
Rain
since
9 am
mm
Dir
 
Spd
km/h
Gust
km/h
Spd
kts
Gust
kts
28/05:30pm 19.8 18.6 6.6 42 6.6 NE 2 7 1 4 - - 0.0
28/05:00pm 19.8 17.9 6.8 42 6.6 SE 6 9 3 5 - - 0.0
28/04:30pm 20.4 17.5 6.7 41 6.9 NNW 11 15 6 8 - - 0.0
28/04:00pm 19.8 17.7 6.6 42 6.6 NNW 7 11 4 6 - - 0.0
28/03:30pm 19.6 16.5 5.5 39 6.9 N 11 15 6 8 - - 0.0
28/03:00pm 20.4 17.5 6.4 40 7.0 N 11 17 6 9 - - 0.0
28/02:30pm 19.4 16.3 5.5 40 6.8 NE 11 17 6 9 - - 0.0
28/02:00pm 19.0 15.5 5.4 41 6.6 N 13 19 7 10 - - 0.0
28/01:30pm 19.6 16.7 6.6 42 6.5 ENE 11 19 6 10 - - 0.0
28/01:00pm 18.8 14.8 6.5 44 6.1 N 17 22 9 12 - - 0.0
28/12:30pm 17.2 12.7 4.4 42 6.0 N 17 28 9 15 - - 0.0
28/12:00pm 17.1 13.2 5.4 46 5.6 N 15 22 8 12 - - 0.0
28/11:30am 16.7 12.8 5.3 47 5.5 NNW 15 24 8 13 - - 0.0
28/11:00am 16.1 12.8 4.8 47 5.3 W 11 19 6 10 - - 0.0
28/10:30am 14.5 11.9 4.2 50 4.7 E 7 15 4 8 - - 0.0
28/10:00am 13.4 10.2 3.2 50 4.6 NW 9 13 5 7 - - 0.0
28/09:30am 12.6 9.0 2.9 51 4.3 W 11 17 6 9 - - 0.0
28/09:00am 13.3 9.4 3.3 50 4.5 W 13 19 7 10 - - 0.0
28/08:30am 12.7 9.6 3.6 54 4.1 W 9 20 5 11 - - 0.0
28/08:00am 10.2 7.6 6.1 76 1.9 N 9 9 5 5 - - 0.0
28/07:30am 8.2 5.7 4.8 79 1.5 N 7 9 4 5 - - 0.0
28/07:00am 6.8 5.3 4.8 87 0.9 N 2 7 1 4 - - 0.0
28/06:30am 7.0 4.6 5.4 89 0.7 W 7 9 4 5 - - 0.0
28/06:00am 7.5 5.1 5.3 86 1.0 NNW 7 7 4 4 - - 0.0
28/05:30am 7.7 4.9 5.3 85 1.1 SSW 9 11 5 6 - - 0.0
28/05:00am 7.5 6.1 5.3 86 1.0 ESE 2 7 1 4 - - 0.0
28/04:30am 7.3 6.2 5.3 87 0.9 CALM 0 0 0 0 - - 0.0
28/04:00am 7.1 4.8 4.8 85 1.0 W 6 7 3 4 - - 0.0
28/03:30am 6.7 5.5 4.7 87 0.9 CALM 0 0 0 0 - - 0.0
28/03:00am 6.5 5.3 4.7 88 0.8 CALM 0 0 0 0 - - 0.0
28/02:30am 5.5 3.4 4.1 91 0.6 WSW 4 7 2 4 - - 0.0
28/02:00am 4.7 3.3 3.5 92 0.5 CALM 0 0 0 0 - - 0.0
28/01:30am 5.4 4.0 3.5 87 0.8 CALM 0 0 0 0 - - 0.0
28/01:00am 6.0 3.6 4.1 88 0.8 WSW 6 11 3 6 - - 0.0
28/12:30am 6.2 2.8 3.9 85 1.0 SW 11 15 6 8 - - 0.0
28/12:00am 6.8 4.4 4.5 85 1.0 NNE 6 9 3 5 - - 0.0
 
Date/Time
EDT
Tmp

°C
App
Tmp
°C
Dew
Point
°C
Rel
Hum
%
Delta-T

°C
Wind Press
QNH
hPa
Press
MSL
hPa
Rain
since
9 am
mm
Dir
 
Spd
km/h
Gust
km/h
Spd
kts
Gust
kts
27/11:30pm 7.9 5.4 5.0 82 1.3 W 7 11 4 6 - - 0.0
27/11:00pm 8.5 7.0 4.9 78 1.6 NNW 2 9 1 5 - - 0.0
27/10:30pm 9.7 6.4 4.8 71 2.2 SSW 11 15 6 8 - - 0.0
27/10:00pm 11.2 8.7 3.8 60 3.3 WSW 6 11 3 6 - - 0.0
27/09:30pm 11.6 9.2 4.4 61 3.3 NE 6 7 3 4 - - 0.0
27/09:00pm 12.6 8.5 4.1 56 3.8 SW 15 24 8 13 - - 0.0
27/08:30pm 13.1 9.7 3.9 53 4.2 SW 11 15 6 8 - - 0.0
27/08:00pm 14.0 10.2 4.0 51 4.6 SW 13 17 7 9 - - 0.0
27/07:30pm 15.2 10.5 3.2 44 5.4 SW 17 24 9 13 - - 0.0
27/07:00pm 16.3 11.0 1.8 37 6.4 SW 19 32 10 17 - - 0.0
27/06:30pm 17.1 11.9 2.5 37 6.6 SW 19 28 10 15 - - 0.0
27/06:00pm 17.5 11.7 2.2 36 6.9 SW 22 32 12 17 - - 0.0
27/05:30pm 17.6 11.4 2.0 35 7.0 SW 24 35 13 19 - - 0.0
27/05:00pm 17.8 12.2 1.0 32 7.4 SW 20 33 11 18 - - 0.0
27/04:30pm 18.5 13.1 2.2 33 7.4 SW 20 33 11 18 - - 0.0
27/04:00pm 18.5 13.0 1.9 33 7.5 SW 20 33 11 18 - - 0.0
27/03:30pm 17.5 10.2 2.2 36 6.9 SW 30 43 16 23 - - 0.0
27/03:00pm 17.7 10.8 2.5 36 6.9 SW 28 46 15 25 - - 0.0
27/02:56pm 17.9 11.0 2.8 36 6.9 SW 28 46 15 25 - - 0.0
27/02:30pm 17.3 10.4 2.5 37 6.7 SW 28 39 15 21 - - 0.0
27/02:00pm 17.3 11.6 2.8 38 6.6 SW 22 39 12 21 - - 0.0
27/01:30pm 17.3 11.4 3.7 40 6.3 SW 24 35 13 19 - - 0.0
27/01:00pm 15.7 9.1 1.8 39 6.1 SW 26 44 14 24 - - 0.0
27/12:30pm 15.8 11.1 2.9 42 5.8 WSW 17 33 9 18 - - 0.0
27/12:00pm 15.7 11.0 3.3 43 5.7 WSW 17 30 9 16 - - 0.0
27/11:30am 14.7 9.3 2.4 43 5.5 WSW 20 37 11 20 - - 0.0
27/11:00am 14.1 10.0 4.2 51 4.5 NNW 15 26 8 14 - - 0.0
27/10:30am 14.0 10.1 3.2 48 4.8 WSW 13 24 7 13 - - 0.0
27/10:00am 13.9 8.7 3.3 49 4.8 SW 20 33 11 18 - - 0.0
27/09:30am 13.5 8.7 2.8 48 4.7 WSW 17 30 9 16 - - 0.0
27/09:00am 14.4 10.9 3.5 48 4.9 WSW 11 22 6 12 - - 0.0
27/08:30am 13.5 9.2 3.3 50 4.6 SW 15 24 8 13 - - 0.0
27/08:00am 12.5 8.6 3.4 54 4.0 WSW 13 20 7 11 - - 0.0
27/07:30am 12.6 9.0 3.2 52 4.2 NW 11 15 6 8 - - 0.0
27/07:00am 11.7 6.9 2.6 53 3.9 WNW 17 30 9 16 - - 0.0
27/06:30am 11.0 6.9 2.5 56 3.7 WNW 13 22 7 12 - - 0.0
27/06:00am 10.1 7.1 4.1 66 2.7 W 9 13 5 7 - - 0.0
27/05:30am 9.7 6.2 3.3 64 2.8 NNW 11 13 6 7 - - 0.0
27/05:00am 9.0 6.0 4.3 72 2.1 N 9 17 5 9 - - 0.0
27/04:30am 9.5 7.0 3.6 66 2.6 NNE 6 13 3 7 - - 0.0
27/04:00am 8.4 6.6 3.6 72 2.1 S 2 11 1 6 - - 0.0
27/03:30am 8.9 6.6 2.9 66 2.6 E 4 9 2 5 - - 0.0
27/03:00am 9.2 6.1 3.5 67 2.5 NW 9 13 5 7 - - 0.0
27/02:30am 10.7 6.6 2.1 55 3.7 SW 13 22 7 12 - - 0.0
27/02:00am 10.8 7.5 2.5 56 3.6 WNW 9 17 5 9 - - 0.0
27/01:30am 10.7 7.9 2.9 58 3.4 SW 7 9 4 5 - - 0.0
27/01:00am 10.8 7.5 2.2 55 3.7 W 9 15 5 8 - - 0.0
27/12:30am 9.9 8.8 5.3 73 2.1 CALM 0 7 0 4 - - 0.0
27/12:00am 10.0 7.2 5.0 71 2.3 SE 9 11 5 6 - - 0.0
 
Date/Time
EDT
Tmp

°C
App
Tmp
°C
Dew
Point
°C
Rel
Hum
%
Delta-T

°C
Wind Press
QNH
hPa
Press
MSL
hPa
Rain
since
9 am
mm
Dir
 
Spd
km/h
Gust
km/h
Spd
kts
Gust
kts
26/11:30pm 10.2 7.7 3.9 65 2.8 NW 6 9 3 5 - - 0.0
26/11:00pm 9.8 7.2 4.0 67 2.6 ESE 7 11 4 6 - - 0.0
26/10:30pm 10.2 7.5 3.7 64 2.9 NNE 7 9 4 5 - - 0.0
26/10:00pm 10.6 8.4 3.6 62 3.1 E 4 9 2 5 - - 0.0
26/09:30pm 11.3 8.0 2.6 55 3.8 NNW 9 19 5 10 - - 0.0
26/09:00pm 11.9 7.7 1.4 48 4.4 W 13 20 7 11 - - 0.0
26/08:30pm 11.9 7.8 2.3 52 4.1 W 13 26 7 14 - - 0.0
26/08:00pm 12.3 7.5 2.8 52 4.2 WSW 17 30 9 16 - - 0.0
26/07:30pm 13.0 8.6 2.9 50 4.5 WNW 15 26 8 14 - - 0.0
26/07:00pm 13.4 9.2 1.7 45 5.1 W 13 24 7 13 - - 0.0
26/06:30pm 13.6 9.3 3.2 49 4.7 WSW 15 28 8 15 - - 0.0
26/06:00pm 14.4 9.7 2.9 46 5.1 WSW 17 30 9 16 - - 0.0
26/05:30pm 16.2 11.9 3.2 41 5.9 WSW 15 28 8 15 - - 0.0
26/05:00pm 16.2 11.2 3.5 42 5.8 W 19 37 10 20 - - 0.0
26/04:30pm 14.3 8.2 5.0 53 4.3 SW 26 39 14 21 - - 0.0
26/04:00pm 16.3 11.3 4.5 45 5.5 W 20 37 11 20 - - 0.0
26/03:30pm 15.8 10.3 3.8 44 5.5 WSW 22 39 12 21 - - 0.0
26/03:02pm 15.4 8.9 4.9 49 4.9 WSW 28 48 15 26 - - 0.0
26/03:00pm 16.5 10.7 6.1 50 5.1 WSW 26 43 14 23 - - 0.0
26/02:36pm 13.5 7.4 6.7 63 3.3 WSW 28 48 15 26 - - 0.0
26/02:30pm 14.8 9.8 6.6 58 4.0 WSW 22 33 12 18 - - 0.0
26/02:00pm 15.9 11.0 5.3 49 5.1 WSW 20 33 11 18 - - 0.0
26/01:30pm 16.3 11.5 5.8 50 5.1 WSW 20 28 11 15 - - 0.0
26/01:00pm 15.4 10.8 5.4 51 4.8 SSW 19 30 10 16 - - 0.0
26/12:30pm 15.2 10.7 4.0 47 5.2 W 17 30 9 16 - - 0.0
26/12:00pm 14.9 11.2 4.5 49 4.8 W 13 24 7 13 - - 0.0
26/11:30am 14.4 8.4 5.1 53 4.4 SW 26 37 14 20 - - 0.0
26/11:00am 14.1 10.4 4.7 53 4.4 WNW 13 28 7 15 - - 0.0
26/10:30am 12.9 9.7 5.0 58 3.7 WNW 11 22 6 12 - - 0.0
26/10:00am 12.3 9.5 5.0 61 3.4 NNW 9 13 5 7 - - 0.0
26/09:30am 12.0 7.4 3.8 57 3.7 NW 17 30 9 16 - - 0.0
26/09:00am 11.7 7.7 3.1 55 3.8 NW 13 22 7 12 - - 0.2
26/08:30am 11.8 7.3 6.1 68 2.7 NNE 19 28 10 15 - - 0.2
26/08:00am 11.2 6.2 4.4 63 3.1 NNW 20 30 11 16 - - 0.2
26/07:30am 11.2 4.9 3.8 60 3.3 N 26 35 14 19 - - 0.2
26/07:00am 11.0 4.4 4.1 62 3.1 NNW 28 37 15 20 - - 0.2
26/06:30am 10.9 4.6 3.7 61 3.2 NNW 26 35 14 19 - - 0.2
26/06:00am 11.1 5.1 3.5 59 3.3 N 24 32 13 17 - - 0.2
26/05:30am 11.0 4.7 3.6 60 3.3 N 26 35 14 19 - - 0.2
26/05:00am 12.0 6.9 4.3 59 3.5 N 20 37 11 20 - - 0.2
26/04:30am 12.2 6.0 6.1 66 2.9 N 28 37 15 20 - - 0.2
26/04:00am 12.2 6.9 6.6 68 2.7 N 24 33 13 18 - - 0.2
26/03:30am 12.7 9.2 7.4 70 2.6 N 15 39 8 21 - - 0.2
26/03:00am 13.1 7.6 7.4 68 2.8 NNW 26 41 14 22 - - 0.2
26/02:30am 13.2 9.2 6.8 65 3.1 NNW 17 33 9 18 - - 0.2
26/02:00am 12.5 7.2 6.9 68 2.7 N 24 32 13 17 - - 0.2
26/01:30am 12.3 7.4 6.7 68 2.7 N 22 35 12 19 - - 0.2
26/01:00am 11.9 7.3 6.7 70 2.5 N 20 28 11 15 - - 0.2
26/12:30am 11.5 8.3 6.9 73 2.2 N 13 17 7 9 - - 0.2
26/12:00am 11.6 8.7 6.3 70 2.5 NNW 11 15 6 8 - - 0.2
 
Date/Time
EDT
Tmp

°C
App
Tmp
°C
Dew
Point
°C
Rel
Hum
%
Delta-T

°C
Wind Press
QNH
hPa
Press
MSL
hPa
Rain
since
9 am
mm
Dir
 
Spd
km/h
Gust
km/h
Spd
kts
Gust
kts
25/11:30pm 11.6 8.6 6.1 69 2.6 N 11 15 6 8 - - 0.2
25/11:00pm 11.7 9.1 6.2 69 2.6 NNW 9 11 5 6 - - 0.2
25/10:30pm 11.9 8.8 5.7 66 2.9 NW 11 17 6 9 - - 0.2
25/10:00pm 12.2 8.9 4.6 59 3.5 NW 11 17 6 9 - - 0.2
25/09:30pm 12.3 9.4 4.7 60 3.5 NW 9 17 5 9 - - 0.2
25/09:00pm 12.3 9.7 4.2 57 3.7 NW 7 13 4 7 - - 0.2
25/08:30pm 12.7 8.0 3.1 52 4.3 W 17 30 9 16 - - 0.2
25/08:00pm 12.9 7.5 2.2 48 4.7 W 20 33 11 18 - - 0.2
25/07:30pm 13.0 8.0 1.1 44 5.1 W 17 30 9 16 - - 0.2
25/07:00pm 13.2 8.4 2.6 48 4.7 WNW 17 33 9 18 - - 0.2
25/06:30pm 13.2 8.0 3.8 53 4.2 WNW 20 41 11 22 - - 0.2
25/06:03pm 13.6 7.1 4.8 55 4.1 W 28 52 15 28 - - 0.2
25/06:00pm 13.9 7.9 3.6 50 4.7 W 24 52 13 28 - - 0.2

Latest Capital City Observations: Canberra | Sydney | Melbourne | Brisbane | Adelaide | Perth | Hobart | Darwin

Other Formats:

Comma delimited format used in spreadsheet applications
http://www.bom.gov.au/fwo/IDT60901/IDT60901.94964.axf

JavaScript Object Notation format (JSON) in row-major order
http://www.bom.gov.au/fwo/IDT60901/IDT60901.94964.json